Aviation Digital Data Service (ADDS)

Output produced by METARs form (0429 UTC 26 May 2018)
found at http://www.aviationweather.gov/adds/metars/
 
TAF SYCJ 252314Z 2600/2624 VRB02KT 9999 SCT014 SCT038 BKN090 
     BECMG 2608/2610 5000 SHRA RA BKN012 BKN034 BKN080 
     BECMG 2615/2617 07010KT 9999 BKN018 SCT036 BKN100
       
TAF SYKM 251100Z 2512/2612 06006KT 5000 SHRA-RA FEW012CB BKN014 OVC070 
     BECMG 2520/2522 9999 SCT014 BKN080 
       
TAF SYLT 251100Z 2512/2612 06012KT 6000 SHRA FEW014CB BKN016 BKN090 
     BECMG 2520/2522 04006KT 9999 SCT015 BKN100